sensor_id;sensor_type;location;lat;lon;timestamp;pressure;altitude;pressure_sealevel;temperature;humidity
59417;BME280;45222;52.458;20.914;2023-09-08T00:00:12;101700.98;;;15.33;77.47
59417;BME280;45222;52.458;20.914;2023-09-08T00:04:17;101697.20;;;15.29;77.83
59417;BME280;45222;52.458;20.914;2023-09-08T00:08:05;101694.31;;;15.25;77.78
59417;BME280;45222;52.458;20.914;2023-09-08T00:11:50;101692.50;;;15.22;77.56
59417;BME280;45222;52.458;20.914;2023-09-08T00:15:36;101690.33;;;15.15;77.57
59417;BME280;45222;52.458;20.914;2023-09-08T00:19:21;101692.73;;;15.09;77.87
59417;BME280;45222;52.458;20.914;2023-09-08T00:23:07;101687.40;;;15.04;78.07
59417;BME280;45222;52.458;20.914;2023-09-08T00:26:54;101687.69;;;15.02;78.26
59417;BME280;45222;52.458;20.914;2023-09-08T00:30:39;101690.55;;;14.98;78.32
59417;BME280;45222;52.458;20.914;2023-09-08T00:34:24;101696.60;;;14.91;78.33
59417;BME280;45222;52.458;20.914;2023-09-08T00:38:09;101699.08;;;14.84;78.41
59417;BME280;45222;52.458;20.914;2023-09-08T00:41:55;101703.52;;;14.77;78.68
59417;BME280;45222;52.458;20.914;2023-09-08T00:45:42;101702.59;;;14.73;79.00
59417;BME280;45222;52.458;20.914;2023-09-08T00:49:27;101700.92;;;14.74;79.06
59417;BME280;45222;52.458;20.914;2023-09-08T00:53:13;101695.65;;;14.76;79.12
59417;BME280;45222;52.458;20.914;2023-09-08T00:57:02;101689.58;;;14.76;79.03
59417;BME280;45222;52.458;20.914;2023-09-08T01:00:52;101691.79;;;14.74;79.00
59417;BME280;45222;52.458;20.914;2023-09-08T01:04:39;101686.23;;;14.70;78.97
59417;BME280;45222;52.458;20.914;2023-09-08T01:08:26;101687.77;;;14.67;78.92
59417;BME280;45222;52.458;20.914;2023-09-08T01:12:11;101686.92;;;14.63;79.07
59417;BME280;45222;52.458;20.914;2023-09-08T01:15:56;101688.23;;;14.53;79.49
59417;BME280;45222;52.458;20.914;2023-09-08T01:19:42;101684.14;;;14.48;79.90
59417;BME280;45222;52.458;20.914;2023-09-08T01:23:42;101682.51;;;14.49;80.02
59417;BME280;45222;52.458;20.914;2023-09-08T01:27:35;101678.02;;;14.49;80.09
59417;BME280;45222;52.458;20.914;2023-09-08T01:31:20;101678.20;;;14.49;79.80
59417;BME280;45222;52.458;20.914;2023-09-08T01:35:07;101678.30;;;14.51;79.77
59417;BME280;45222;52.458;20.914;2023-09-08T01:38:54;101679.48;;;14.53;79.75
59417;BME280;45222;52.458;20.914;2023-09-08T01:42:39;101674.06;;;14.54;79.89
59417;BME280;45222;52.458;20.914;2023-09-08T01:46:24;101671.80;;;14.53;79.87
59417;BME280;45222;52.458;20.914;2023-09-08T01:50:10;101668.84;;;14.50;79.74
59417;BME280;45222;52.458;20.914;2023-09-08T01:53:55;101669.41;;;14.45;79.74
59417;BME280;45222;52.458;20.914;2023-09-08T01:57:40;101669.90;;;14.42;80.00
59417;BME280;45222;52.458;20.914;2023-09-08T02:01:25;101669.65;;;14.44;80.19
59417;BME280;45222;52.458;20.914;2023-09-08T02:05:10;101667.83;;;14.44;80.53
59417;BME280;45222;52.458;20.914;2023-09-08T02:08:55;101667.02;;;14.47;80.57
59417;BME280;45222;52.458;20.914;2023-09-08T02:12:41;101667.98;;;14.49;80.44
59417;BME280;45222;52.458;20.914;2023-09-08T02:16:26;101667.07;;;14.46;80.32
59417;BME280;45222;52.458;20.914;2023-09-08T02:20:12;101665.67;;;14.45;80.41
59417;BME280;45222;52.458;20.914;2023-09-08T02:23:57;101660.98;;;14.45;80.53
59417;BME280;45222;52.458;20.914;2023-09-08T02:27:42;101658.64;;;14.46;80.66
59417;BME280;45222;52.458;20.914;2023-09-08T02:31:28;101655.42;;;14.46;80.63
59417;BME280;45222;52.458;20.914;2023-09-08T02:35:13;101653.18;;;14.44;80.55
59417;BME280;45222;52.458;20.914;2023-09-08T02:38:59;101650.95;;;14.42;80.49
59417;BME280;45222;52.458;20.914;2023-09-08T02:42:44;101647.07;;;14.37;80.33
59417;BME280;45222;52.458;20.914;2023-09-08T02:46:29;101640.52;;;14.31;80.62
59417;BME280;45222;52.458;20.914;2023-09-08T02:50:15;101645.23;;;14.30;80.95
59417;BME280;45222;52.458;20.914;2023-09-08T02:54:00;101639.31;;;14.30;81.13
59417;BME280;45222;52.458;20.914;2023-09-08T02:57:45;101637.20;;;14.29;81.11
59417;BME280;45222;52.458;20.914;2023-09-08T03:01:30;101632.27;;;14.28;80.80
59417;BME280;45222;52.458;20.914;2023-09-08T03:05:16;101629.14;;;14.25;80.91
59417;BME280;45222;52.458;20.914;2023-09-08T03:09:01;101628.83;;;14.25;81.19
59417;BME280;45222;52.458;20.914;2023-09-08T03:12:47;101622.27;;;14.22;81.17
59417;BME280;45222;52.458;20.914;2023-09-08T03:16:32;101626.66;;;14.20;81.25
59417;BME280;45222;52.458;20.914;2023-09-08T03:20:17;101628.38;;;14.21;81.29
59417;BME280;45222;52.458;20.914;2023-09-08T03:24:02;101626.89;;;14.24;81.52
59417;BME280;45222;52.458;20.914;2023-09-08T03:27:48;101624.02;;;14.28;81.73
59417;BME280;45222;52.458;20.914;2023-09-08T03:31:33;101622.73;;;14.28;81.49
59417;BME280;45222;52.458;20.914;2023-09-08T03:35:19;101624.02;;;14.28;81.52
59417;BME280;45222;52.458;20.914;2023-09-08T03:39:05;101625.09;;;14.23;81.35
59417;BME280;45222;52.458;20.914;2023-09-08T03:42:53;101626.23;;;14.22;81.46
59417;BME280;45222;52.458;20.914;2023-09-08T03:46:44;101630.11;;;14.24;81.46
59417;BME280;45222;52.458;20.914;2023-09-08T03:50:38;101625.22;;;14.25;81.61
59417;BME280;45222;52.458;20.914;2023-09-08T03:54:25;101622.63;;;14.27;81.58
59417;BME280;45222;52.458;20.914;2023-09-08T03:58:11;101622.20;;;14.24;81.36
59417;BME280;45222;52.458;20.914;2023-09-08T04:01:56;101626.10;;;14.21;81.27
59417;BME280;45222;52.458;20.914;2023-09-08T04:05:41;101622.81;;;14.18;81.37
59417;BME280;45222;52.458;20.914;2023-09-08T04:09:26;101618.20;;;14.18;81.51
59417;BME280;45222;52.458;20.914;2023-09-08T04:13:12;101612.46;;;14.18;81.57
59417;BME280;45222;52.458;20.914;2023-09-08T04:16:58;101620.33;;;14.18;81.55
59417;BME280;45222;52.458;20.914;2023-09-08T04:20:43;101621.70;;;14.19;81.66
59417;BME280;45222;52.458;20.914;2023-09-08T04:24:28;101620.84;;;14.18;81.35
59417;BME280;45222;52.458;20.914;2023-09-08T04:28:13;101618.55;;;14.18;81.40
59417;BME280;45222;52.458;20.914;2023-09-08T04:31:58;101621.88;;;14.19;81.61
59417;BME280;45222;52.458;20.914;2023-09-08T04:35:44;101617.17;;;14.21;81.77
59417;BME280;45222;52.458;20.914;2023-09-08T04:39:30;101619.39;;;14.23;81.81
59417;BME280;45222;52.458;20.914;2023-09-08T04:43:15;101616.36;;;14.27;81.82
59417;BME280;45222;52.458;20.914;2023-09-08T04:47:00;101613.46;;;14.32;81.59
59417;BME280;45222;52.458;20.914;2023-09-08T04:50:45;101615.98;;;14.40;81.85
59417;BME280;45222;52.458;20.914;2023-09-08T04:54:30;101609.35;;;14.52;82.14
59417;BME280;45222;52.458;20.914;2023-09-08T04:58:16;101611.02;;;14.63;82.09
59417;BME280;45222;52.458;20.914;2023-09-08T05:02:01;101611.84;;;14.72;82.11
59417;BME280;45222;52.458;20.914;2023-09-08T05:05:46;101610.48;;;14.83;81.96
59417;BME280;45222;52.458;20.914;2023-09-08T05:09:31;101608.08;;;14.92;81.84
59417;BME280;45222;52.458;20.914;2023-09-08T05:13:17;101607.48;;;15.01;82.10
59417;BME280;45222;52.458;20.914;2023-09-08T05:17:04;101611.54;;;15.10;82.30
59417;BME280;45222;52.458;20.914;2023-09-08T05:20:49;101613.90;;;15.17;82.32
59417;BME280;45222;52.458;20.914;2023-09-08T05:24:37;101611.90;;;15.21;82.29
59417;BME280;45222;52.458;20.914;2023-09-08T05:28:22;101609.58;;;15.32;82.14
59417;BME280;45222;52.458;20.914;2023-09-08T05:32:07;101607.45;;;15.46;82.30
59417;BME280;45222;52.458;20.914;2023-09-08T05:35:52;101608.75;;;15.64;82.33
59417;BME280;45222;52.458;20.914;2023-09-08T05:39:37;101608.13;;;15.80;82.21
59417;BME280;45222;52.458;20.914;2023-09-08T05:43:24;101611.81;;;15.93;82.17
59417;BME280;45222;52.458;20.914;2023-09-08T05:47:09;101609.60;;;16.04;81.99
59417;BME280;45222;52.458;20.914;2023-09-08T05:50:55;101609.89;;;16.19;81.84
59417;BME280;45222;52.458;20.914;2023-09-08T05:54:40;101610.20;;;16.38;81.68
59417;BME280;45222;52.458;20.914;2023-09-08T05:58:25;101616.40;;;16.56;81.24
59417;BME280;45222;52.458;20.914;2023-09-08T06:02:11;101616.27;;;16.72;80.87
59417;BME280;45222;52.458;20.914;2023-09-08T06:05:57;101613.54;;;16.86;80.20
59417;BME280;45222;52.458;20.914;2023-09-08T06:09:42;101613.46;;;17.04;79.84
59417;BME280;45222;52.458;20.914;2023-09-08T06:13:28;101612.60;;;17.23;79.80
59417;BME280;45222;52.458;20.914;2023-09-08T06:17:13;101607.58;;;17.42;79.50
59417;BME280;45222;52.458;20.914;2023-09-08T06:20:58;101600.70;;;17.58;79.00
59417;BME280;45222;52.458;20.914;2023-09-08T06:24:43;101602.36;;;17.76;78.47
59417;BME280;45222;52.458;20.914;2023-09-08T06:28:29;101593.74;;;17.90;77.94
59417;BME280;45222;52.458;20.914;2023-09-08T06:32:14;101594.86;;;18.08;77.59
59417;BME280;45222;52.458;20.914;2023-09-08T06:35:59;101592.41;;;18.25;77.45
59417;BME280;45222;52.458;20.914;2023-09-08T06:39:44;101590.84;;;18.39;76.85
59417;BME280;45222;52.458;20.914;2023-09-08T06:43:30;101587.95;;;18.54;76.56
59417;BME280;45222;52.458;20.914;2023-09-08T06:47:16;101586.83;;;18.69;76.00
59417;BME280;45222;52.458;20.914;2023-09-08T06:51:01;101592.27;;;18.85;75.77
59417;BME280;45222;52.458;20.914;2023-09-08T06:54:46;101592.29;;;19.02;75.46
59417;BME280;45222;52.458;20.914;2023-09-08T06:58:31;101591.90;;;19.17;74.68
59417;BME280;45222;52.458;20.914;2023-09-08T07:02:16;101589.83;;;19.32;74.33
59417;BME280;45222;52.458;20.914;2023-09-08T07:06:02;101590.27;;;19.47;73.78
59417;BME280;45222;52.458;20.914;2023-09-08T07:09:47;101588.14;;;19.57;73.33
59417;BME280;45222;52.458;20.914;2023-09-08T07:13:32;101588.05;;;19.72;72.84
59417;BME280;45222;52.458;20.914;2023-09-08T07:17:17;101581.46;;;19.84;73.05
59417;BME280;45222;52.458;20.914;2023-09-08T07:21:03;101583.48;;;20.00;72.63
59417;BME280;45222;52.458;20.914;2023-09-08T07:24:48;101582.81;;;20.15;71.96
59417;BME280;45222;52.458;20.914;2023-09-08T07:28:33;101584.42;;;20.26;71.80
59417;BME280;45222;52.458;20.914;2023-09-08T07:32:19;101582.71;;;20.40;71.17
59417;BME280;45222;52.458;20.914;2023-09-08T07:36:08;101582.42;;;20.57;70.85
59417;BME280;45222;52.458;20.914;2023-09-08T07:39:53;101584.82;;;20.81;70.68
59417;BME280;45222;52.458;20.914;2023-09-08T07:43:39;101585.56;;;21.02;69.56
59417;BME280;45222;52.458;20.914;2023-09-08T07:47:25;101589.80;;;21.17;68.99
59417;BME280;45222;52.458;20.914;2023-09-08T07:51:10;101588.52;;;21.32;68.71
59417;BME280;45222;52.458;20.914;2023-09-08T07:54:55;101588.52;;;21.47;68.33
59417;BME280;45222;52.458;20.914;2023-09-08T07:58:40;101583.52;;;21.60;67.49
59417;BME280;45222;52.458;20.914;2023-09-08T08:02:25;101583.78;;;21.69;67.07
59417;BME280;45222;52.458;20.914;2023-09-08T08:06:10;101583.17;;;21.80;66.87
59417;BME280;45222;52.458;20.914;2023-09-08T08:09:55;101572.98;;;21.90;66.64
59417;BME280;45222;52.458;20.914;2023-09-08T08:13:40;101575.88;;;22.09;66.55
59417;BME280;45222;52.458;20.914;2023-09-08T08:17:25;101573.90;;;22.29;65.56
59417;BME280;45222;52.458;20.914;2023-09-08T08:21:12;101574.75;;;22.49;65.55
59417;BME280;45222;52.458;20.914;2023-09-08T08:24:57;101571.91;;;22.71;65.00
59417;BME280;45222;52.458;20.914;2023-09-08T08:28:42;101574.17;;;22.92;64.12
59417;BME280;45222;52.458;20.914;2023-09-08T08:32:27;101578.11;;;23.06;62.92
59417;BME280;45222;52.458;20.914;2023-09-08T08:36:13;101578.20;;;23.14;61.85
59417;BME280;45222;52.458;20.914;2023-09-08T08:39:58;101579.35;;;23.22;61.66
59417;BME280;45222;52.458;20.914;2023-09-08T08:43:43;101570.41;;;23.25;61.53
59417;BME280;45222;52.458;20.914;2023-09-08T08:47:29;101567.70;;;23.31;61.69
59417;BME280;45222;52.458;20.914;2023-09-08T08:51:16;101564.83;;;23.49;61.67
59417;BME280;45222;52.458;20.914;2023-09-08T08:55:02;101562.22;;;23.67;61.68
59417;BME280;45222;52.458;20.914;2023-09-08T08:58:49;101560.39;;;23.82;60.96
59417;BME280;45222;52.458;20.914;2023-09-08T09:02:35;101555.95;;;23.97;60.86
59417;BME280;45222;52.458;20.914;2023-09-08T09:06:20;101551.06;;;24.06;59.46
59417;BME280;45222;52.458;20.914;2023-09-08T09:10:08;101549.12;;;24.07;58.79
59417;BME280;45222;52.458;20.914;2023-09-08T09:13:53;101546.69;;;24.10;58.43
59417;BME280;45222;52.458;20.914;2023-09-08T09:17:38;101544.15;;;24.17;58.65
59417;BME280;45222;52.458;20.914;2023-09-08T09:21:24;101540.98;;;24.22;57.99
59417;BME280;45222;52.458;20.914;2023-09-08T09:25:22;101543.18;;;24.40;57.69
59417;BME280;45222;52.458;20.914;2023-09-08T09:29:12;101538.71;;;24.62;57.26
59417;BME280;45222;52.458;20.914;2023-09-08T09:33:02;101539.89;;;24.85;56.36
59417;BME280;45222;52.458;20.914;2023-09-08T09:36:49;101533.66;;;25.04;55.68
59417;BME280;45222;52.458;20.914;2023-09-08T09:40:34;101527.92;;;25.17;55.59
59417;BME280;45222;52.458;20.914;2023-09-08T09:44:19;101521.39;;;25.28;54.76
59417;BME280;45222;52.458;20.914;2023-09-08T09:48:10;101515.02;;;25.40;54.07
59417;BME280;45222;52.458;20.914;2023-09-08T09:51:56;101522.33;;;25.56;54.25
59417;BME280;45222;52.458;20.914;2023-09-08T09:55:44;101516.73;;;25.65;54.15
59417;BME280;45222;52.458;20.914;2023-09-08T09:59:32;101511.94;;;25.83;53.05
59417;BME280;45222;52.458;20.914;2023-09-08T10:03:19;101509.92;;;25.85;52.04
59417;BME280;45222;52.458;20.914;2023-09-08T10:07:05;101506.23;;;25.92;52.38
59417;BME280;45222;52.458;20.914;2023-09-08T10:10:51;101502.98;;;25.93;51.90
59417;BME280;45222;52.458;20.914;2023-09-08T10:14:36;101500.17;;;26.07;50.65
59417;BME280;45222;52.458;20.914;2023-09-08T10:18:26;101499.05;;;26.04;49.97
59417;BME280;45222;52.458;20.914;2023-09-08T10:22:13;101495.90;;;25.98;51.05
59417;BME280;45222;52.458;20.914;2023-09-08T10:26:03;101495.30;;;25.95;51.04
59417;BME280;45222;52.458;20.914;2023-09-08T10:29:50;101494.82;;;25.89;50.85
59417;BME280;45222;52.458;20.914;2023-09-08T10:33:36;101491.81;;;25.84;50.82
59417;BME280;45222;52.458;20.914;2023-09-08T10:37:24;101488.30;;;25.87;50.01
59417;BME280;45222;52.458;20.914;2023-09-08T10:41:29;101486.14;;;26.07;48.12
59417;BME280;45222;52.458;20.914;2023-09-08T10:45:17;101478.60;;;26.31;47.07
59417;BME280;45222;52.458;20.914;2023-09-08T10:49:05;101479.85;;;26.53;46.57
59417;BME280;45222;52.458;20.914;2023-09-08T10:53:05;101479.02;;;26.73;46.55
59417;BME280;45222;52.458;20.914;2023-09-08T10:56:56;101471.14;;;26.90;46.30
59417;BME280;45222;52.458;20.914;2023-09-08T11:00:45;101463.11;;;27.10;46.18
59417;BME280;45222;52.458;20.914;2023-09-08T11:04:31;101456.95;;;27.31;46.11
59417;BME280;45222;52.458;20.914;2023-09-08T11:08:18;101453.73;;;27.59;46.49
59417;BME280;45222;52.458;20.914;2023-09-08T11:12:05;101452.39;;;27.88;45.29
59417;BME280;45222;52.458;20.914;2023-09-08T11:15:52;101447.60;;;28.04;44.25
59417;BME280;45222;52.458;20.914;2023-09-08T11:19:46;101448.73;;;28.17;43.79
59417;BME280;45222;52.458;20.914;2023-09-08T11:23:32;101446.00;;;28.35;43.07
59417;BME280;45222;52.458;20.914;2023-09-08T11:27:17;101443.08;;;28.57;42.63
59417;BME280;45222;52.458;20.914;2023-09-08T11:31:02;101443.25;;;28.62;42.57
59417;BME280;45222;52.458;20.914;2023-09-08T11:34:48;101443.32;;;28.58;41.81
59417;BME280;45222;52.458;20.914;2023-09-08T11:38:33;101444.29;;;28.71;41.19
59417;BME280;45222;52.458;20.914;2023-09-08T11:42:18;101443.28;;;28.77;41.22
59417;BME280;45222;52.458;20.914;2023-09-08T11:46:05;101439.05;;;28.87;40.61
59417;BME280;45222;52.458;20.914;2023-09-08T11:49:53;101436.02;;;29.05;40.07
59417;BME280;45222;52.458;20.914;2023-09-08T11:53:39;101434.95;;;29.24;40.35
59417;BME280;45222;52.458;20.914;2023-09-08T11:57:25;101433.24;;;29.35;39.91
59417;BME280;45222;52.458;20.914;2023-09-08T12:01:11;101428.95;;;29.21;39.28
59417;BME280;45222;52.458;20.914;2023-09-08T12:04:56;101427.23;;;29.05;38.99
59417;BME280;45222;52.458;20.914;2023-09-08T12:08:43;101419.37;;;28.98;39.16
59417;BME280;45222;52.458;20.914;2023-09-08T12:12:30;101416.68;;;29.06;38.55
59417;BME280;45222;52.458;20.914;2023-09-08T12:16:19;101408.41;;;29.18;38.72
59417;BME280;45222;52.458;20.914;2023-09-08T12:20:14;101403.97;;;29.26;38.41
59417;BME280;45222;52.458;20.914;2023-09-08T12:24:00;101399.23;;;29.46;39.18
59417;BME280;45222;52.458;20.914;2023-09-08T12:27:46;101402.56;;;29.75;39.98
59417;BME280;45222;52.458;20.914;2023-09-08T12:31:35;101395.27;;;30.07;39.13
59417;BME280;45222;52.458;20.914;2023-09-08T12:35:23;101390.04;;;30.22;37.65
59417;BME280;45222;52.458;20.914;2023-09-08T12:39:10;101385.65;;;30.26;37.24
59417;BME280;45222;52.458;20.914;2023-09-08T12:42:56;101385.00;;;30.29;37.09
59417;BME280;45222;52.458;20.914;2023-09-08T12:46:42;101379.39;;;30.30;37.05
59417;BME280;45222;52.458;20.914;2023-09-08T12:50:27;101377.43;;;30.31;36.91
59417;BME280;45222;52.458;20.914;2023-09-08T12:54:12;101373.40;;;30.31;36.41
59417;BME280;45222;52.458;20.914;2023-09-08T12:57:57;101372.45;;;30.20;36.50
59417;BME280;45222;52.458;20.914;2023-09-08T13:01:42;101370.71;;;30.13;36.68
59417;BME280;45222;52.458;20.914;2023-09-08T13:05:27;101365.98;;;29.90;36.32
59417;BME280;45222;52.458;20.914;2023-09-08T13:09:14;101359.92;;;29.95;36.62
59417;BME280;45222;52.458;20.914;2023-09-08T13:13:01;101358.17;;;30.14;36.34
59417;BME280;45222;52.458;20.914;2023-09-08T13:16:46;101354.64;;;30.39;36.36
59417;BME280;45222;52.458;20.914;2023-09-08T13:20:32;101348.02;;;30.59;36.03
59417;BME280;45222;52.458;20.914;2023-09-08T13:24:17;101343.25;;;30.67;35.60
59417;BME280;45222;52.458;20.914;2023-09-08T13:28:02;101338.37;;;30.81;35.47
59417;BME280;45222;52.458;20.914;2023-09-08T13:31:47;101331.52;;;30.90;35.09
59417;BME280;45222;52.458;20.914;2023-09-08T13:35:35;101329.55;;;30.99;35.27
59417;BME280;45222;52.458;20.914;2023-09-08T13:39:20;101325.02;;;31.17;35.40
59417;BME280;45222;52.458;20.914;2023-09-08T13:43:05;101321.41;;;31.29;35.00
59417;BME280;45222;52.458;20.914;2023-09-08T13:46:51;101322.81;;;31.44;35.61
59417;BME280;45222;52.458;20.914;2023-09-08T13:50:38;101317.86;;;31.54;36.18
59417;BME280;45222;52.458;20.914;2023-09-08T13:54:25;101314.96;;;31.59;35.96
59417;BME280;45222;52.458;20.914;2023-09-08T13:58:10;101313.77;;;31.49;35.10
59417;BME280;45222;52.458;20.914;2023-09-08T14:01:56;101310.77;;;31.41;35.06
59417;BME280;45222;52.458;20.914;2023-09-08T14:05:42;101306.63;;;31.20;34.40
59417;BME280;45222;52.458;20.914;2023-09-08T14:09:27;101299.77;;;30.92;35.39
59417;BME280;45222;52.458;20.914;2023-09-08T14:13:12;101299.39;;;30.84;35.13
59417;BME280;45222;52.458;20.914;2023-09-08T14:16:58;101297.13;;;30.88;36.78
59417;BME280;45222;52.458;20.914;2023-09-08T14:20:44;101296.63;;;31.02;36.68
59417;BME280;45222;52.458;20.914;2023-09-08T14:24:30;101293.66;;;31.12;35.66
59417;BME280;45222;52.458;20.914;2023-09-08T14:28:15;101290.13;;;31.04;35.34
59417;BME280;45222;52.458;20.914;2023-09-08T14:32:00;101289.88;;;30.91;35.67
59417;BME280;45222;52.458;20.914;2023-09-08T14:35:45;101283.42;;;30.75;35.54
59417;BME280;45222;52.458;20.914;2023-09-08T14:39:35;101282.09;;;30.70;35.41
59417;BME280;45222;52.458;20.914;2023-09-08T14:43:20;101280.27;;;30.72;35.22
59417;BME280;45222;52.458;20.914;2023-09-08T14:47:06;101275.16;;;30.76;35.39
59417;BME280;45222;52.458;20.914;2023-09-08T14:50:51;101272.54;;;30.78;35.27
59417;BME280;45222;52.458;20.914;2023-09-08T14:54:36;101273.30;;;30.80;35.54
59417;BME280;45222;52.458;20.914;2023-09-08T14:58:21;101270.17;;;30.80;35.15
59417;BME280;45222;52.458;20.914;2023-09-08T15:02:07;101265.59;;;30.67;35.07
59417;BME280;45222;52.458;20.914;2023-09-08T15:05:52;101266.86;;;30.47;35.84
59417;BME280;45222;52.458;20.914;2023-09-08T15:09:37;101263.80;;;30.36;36.35
59417;BME280;45222;52.458;20.914;2023-09-08T15:13:27;101261.75;;;30.29;36.01
59417;BME280;45222;52.458;20.914;2023-09-08T15:17:18;101256.22;;;30.18;36.24
59417;BME280;45222;52.458;20.914;2023-09-08T15:21:04;101256.91;;;30.09;36.45
59417;BME280;45222;52.458;20.914;2023-09-08T15:24:50;101249.95;;;29.98;36.67
59417;BME280;45222;52.458;20.914;2023-09-08T15:28:35;101253.46;;;29.86;36.66
59417;BME280;45222;52.458;20.914;2023-09-08T15:32:20;101248.19;;;29.72;37.26
59417;BME280;45222;52.458;20.914;2023-09-08T15:36:06;101248.41;;;29.62;37.78
59417;BME280;45222;52.458;20.914;2023-09-08T15:39:52;101243.03;;;29.55;37.92
59417;BME280;45222;52.458;20.914;2023-09-08T15:43:38;101240.09;;;29.45;37.78
59417;BME280;45222;52.458;20.914;2023-09-08T15:47:24;101239.22;;;29.32;37.92
59417;BME280;45222;52.458;20.914;2023-09-08T15:51:10;101237.15;;;29.15;38.30
59417;BME280;45222;52.458;20.914;2023-09-08T15:54:55;101241.88;;;28.97;38.55
59417;BME280;45222;52.458;20.914;2023-09-08T15:58:42;101241.95;;;28.81;38.68
59417;BME280;45222;52.458;20.914;2023-09-08T16:02:28;101239.20;;;28.67;39.12
59417;BME280;45222;52.458;20.914;2023-09-08T16:06:15;101233.04;;;28.55;39.55
59417;BME280;45222;52.458;20.914;2023-09-08T16:10:07;101231.15;;;28.40;40.02
59417;BME280;45222;52.458;20.914;2023-09-08T16:13:52;101230.92;;;28.27;40.71
59417;BME280;45222;52.458;20.914;2023-09-08T16:17:38;101228.80;;;28.17;41.40
59417;BME280;45222;52.458;20.914;2023-09-08T16:21:23;101227.62;;;28.04;41.70
59417;BME280;45222;52.458;20.914;2023-09-08T16:25:09;101235.09;;;27.92;41.92
59417;BME280;45222;52.458;20.914;2023-09-08T16:28:55;101236.23;;;27.75;43.04
59417;BME280;45222;52.458;20.914;2023-09-08T16:32:40;101238.80;;;27.53;44.33
59417;BME280;45222;52.458;20.914;2023-09-08T16:36:25;101239.62;;;27.28;45.34
59417;BME280;45222;52.458;20.914;2023-09-08T16:40:11;101238.48;;;27.04;46.19
59417;BME280;45222;52.458;20.914;2023-09-08T16:43:56;101239.23;;;26.73;46.98
59417;BME280;45222;52.458;20.914;2023-09-08T16:47:42;101236.92;;;26.26;47.78
59417;BME280;45222;52.458;20.914;2023-09-08T16:51:27;101241.02;;;25.87;48.92
59417;BME280;45222;52.458;20.914;2023-09-08T16:55:15;101239.69;;;25.54;49.64
59417;BME280;45222;52.458;20.914;2023-09-08T16:59:06;101239.63;;;25.21;50.16
59417;BME280;45222;52.458;20.914;2023-09-08T17:02:51;101243.03;;;24.87;50.56
59417;BME280;45222;52.458;20.914;2023-09-08T17:06:37;101244.31;;;24.54;51.45
59417;BME280;45222;52.458;20.914;2023-09-08T17:10:22;101241.70;;;24.19;52.02
59417;BME280;45222;52.458;20.914;2023-09-08T17:14:07;101246.89;;;23.86;52.85
59417;BME280;45222;52.458;20.914;2023-09-08T17:17:53;101252.42;;;23.57;53.35
59417;BME280;45222;52.458;20.914;2023-09-08T17:21:38;101251.04;;;23.29;54.39
59417;BME280;45222;52.458;20.914;2023-09-08T17:25:23;101250.93;;;23.01;55.23
59417;BME280;45222;52.458;20.914;2023-09-08T17:29:10;101255.17;;;22.73;55.64
59417;BME280;45222;52.458;20.914;2023-09-08T17:32:55;101255.20;;;22.44;56.34
59417;BME280;45222;52.458;20.914;2023-09-08T17:36:41;101255.39;;;22.18;57.28
59417;BME280;45222;52.458;20.914;2023-09-08T17:40:26;101255.88;;;21.93;57.96
59417;BME280;45222;52.458;20.914;2023-09-08T17:44:12;101259.14;;;21.70;58.79
59417;BME280;45222;52.458;20.914;2023-09-08T17:47:57;101259.85;;;21.48;59.51
59417;BME280;45222;52.458;20.914;2023-09-08T17:51:42;101268.46;;;21.26;60.00
59417;BME280;45222;52.458;20.914;2023-09-08T17:55:27;101268.92;;;21.06;60.66
59417;BME280;45222;52.458;20.914;2023-09-08T17:59:13;101265.77;;;20.88;61.36
59417;BME280;45222;52.458;20.914;2023-09-08T18:02:58;101265.73;;;20.74;62.03
59417;BME280;45222;52.458;20.914;2023-09-08T18:06:43;101261.50;;;20.61;62.48
59417;BME280;45222;52.458;20.914;2023-09-08T18:10:30;101265.52;;;20.49;62.99
59417;BME280;45222;52.458;20.914;2023-09-08T18:14:17;101261.73;;;20.34;63.29
59417;BME280;45222;52.458;20.914;2023-09-08T18:18:03;101260.77;;;20.18;63.92
59417;BME280;45222;52.458;20.914;2023-09-08T18:21:48;101256.41;;;20.01;64.36
59417;BME280;45222;52.458;20.914;2023-09-08T18:25:34;101257.73;;;19.86;64.63
59417;BME280;45222;52.458;20.914;2023-09-08T18:29:22;101262.19;;;19.74;65.15
59417;BME280;45222;52.458;20.914;2023-09-08T18:33:07;101261.52;;;19.63;65.93
59417;BME280;45222;52.458;20.914;2023-09-08T18:36:52;101263.27;;;19.51;66.28
59417;BME280;45222;52.458;20.914;2023-09-08T18:40:43;101264.60;;;19.40;66.53
59417;BME280;45222;52.458;20.914;2023-09-08T18:44:29;101260.57;;;19.29;66.82
59417;BME280;45222;52.458;20.914;2023-09-08T18:48:14;101261.00;;;19.17;67.10
59417;BME280;45222;52.458;20.914;2023-09-08T18:52:01;101260.05;;;19.08;67.57
59417;BME280;45222;52.458;20.914;2023-09-08T18:55:47;101258.16;;;18.98;68.16
59417;BME280;45222;52.458;20.914;2023-09-08T18:59:32;101254.47;;;18.86;68.55
59417;BME280;45222;52.458;20.914;2023-09-08T19:03:18;101255.02;;;18.73;68.83
59417;BME280;45222;52.458;20.914;2023-09-08T19:07:04;101253.15;;;18.58;69.13
59417;BME280;45222;52.458;20.914;2023-09-08T19:10:49;101252.92;;;18.45;69.21
59417;BME280;45222;52.458;20.914;2023-09-08T19:14:35;101249.60;;;18.36;69.50
59417;BME280;45222;52.458;20.914;2023-09-08T19:18:20;101246.08;;;18.29;69.98
59417;BME280;45222;52.458;20.914;2023-09-08T19:22:07;101243.95;;;18.24;70.36
59417;BME280;45222;52.458;20.914;2023-09-08T19:25:56;101246.74;;;18.14;70.33